Time;durP1;ratioP1;P1;durP2;ratioP2;P2;SDS_P1;SDS_P2;PMS_P1;PMS_P2;Temp;Humidity;BMP_temperature;BMP_pressure;BME280_temperature;BME280_humidity;BME280_pressure;Samples;Min_cycle;Max_cycle;Signal;HPM_P1;HPM_P2
2024/04/18 00:02:13;;;;;;;;;;;;;;;;;;5504616;25;5079;-71
2024/04/18 00:04:39;;;;;;;;;;;;;;;;;;5516269;26;5162;-70
2024/04/18 00:07:04;;;;;;;;;;;;;;;;;;5506429;26;4702;-70
2024/04/18 00:09:30;;;;;;;;;;;;;;;;;;5515454;25;5099;-71
2024/04/18 00:11:55;;;;;;;;;;;;;;;;;;5520757;26;5083;-70
2024/04/18 00:14:21;;;;;;;;;;;;;;;;;;5475822;26;1235;-69
2024/04/18 00:16:46;;;;;;;;;;;;;;;;;;5509952;25;5021;-70
2024/04/18 00:19:11;;;;;;;;;;;;;;;;;;5519644;26;5645;-70
2024/04/18 00:21:37;;;;;;;;;;;;;;;;;;5499511;26;5064;-72
2024/04/18 00:24:02;;;;;;;;;;;;;;;;;;5520140;25;5204;-70
2024/04/18 00:26:28;;;;;;;;;;;;;;;;;;5501856;25;1833;-70
2024/04/18 00:28:53;;;;;;;;;;;;;;;;;;5502489;26;5052;-69
2024/04/18 00:31:18;;;;;;;;;;;;;;;;;;5501758;26;5211;-70
2024/04/18 00:33:44;;;;;;;;;;;;;;;;;;5499556;26;5162;-69
2024/04/18 00:36:09;;;;;;;;;;;;;;;;;;5502969;26;4662;-69
2024/04/18 00:38:35;;;;;;;;;;;;;;;;;;5511013;26;1417;-71
2024/04/18 00:41:00;;;;;;;;;;;;;;;;;;5503112;26;5043;-71
2024/04/18 00:43:26;;;;;;;;;;;;;;;;;;5495871;25;5289;-70
2024/04/18 00:45:52;;;;;;;;;;;;;;;;;;5519684;26;4530;-71
2024/04/18 00:48:17;;;;;;;;;;;;;;;;;;5481814;25;5111;-71
2024/04/18 00:50:42;;;;;;;;;;;;;;;;;;5476086;26;1739;-70
2024/04/18 00:53:08;;;;;;;;;;;;;;;;;;5471371;26;4503;-70
2024/04/18 00:55:33;;;;;;;;;;;;;;;;;;5479778;26;5105;-69
2024/04/18 00:57:58;;;;;;;;;;;;;;;;;;5487338;26;5036;-69
2024/04/18 01:00:24;;;;;;;;;;;;;;;;;;5486531;26;5862;-69
2024/04/18 01:02:49;;;;;;;;;;;;;;;;;;5509453;26;5165;-70
2024/04/18 01:05:14;;;;;;;;;;;;;;;;;;5502585;26;1882;-69
2024/04/18 01:07:40;;;;;;;;;;;;;;;;;;5503764;26;5150;-69
2024/04/18 01:10:05;;;;;;;;;;;;;;;;;;5499526;26;5204;-72
2024/04/18 01:12:31;;;;;;;;;;;;;;;;;;5516810;26;5117;-71
2024/04/18 01:14:56;;;;;;;;;;;;;;;;;;5511706;26;5126;-70
2024/04/18 01:17:21;;;;;;;;;;;;;;;;;;5496360;26;1294;-70
2024/04/18 01:19:47;;;;;;;;;;;;;;;;;;5510467;26;5047;-74
2024/04/18 01:22:12;;;;;;;;;;;;;;;;;;5502858;26;5076;-70
2024/04/18 01:24:37;;;;;;;;;;;;;;;;;;5518985;26;5145;-69
2024/04/18 01:27:03;;;;;;;;;;;;;;;;;;5505357;25;5315;-68
2024/04/18 01:29:28;;;;;;;;;;;;;;;;;;5510509;25;1367;-70
2024/04/18 01:31:53;;;;;;;;;;;;;;;;;;5464580;26;5070;-71
2024/04/18 01:34:19;;;;;;;;;;;;;;;;;;5515109;26;5129;-70
2024/04/18 01:36:44;;;;;;;;;;;;;;;;;;5513558;26;5130;-70
2024/04/18 01:39:09;;;;;;;;;;;;;;;;;;5499550;26;5110;-69
2024/04/18 01:41:35;;;;;;;;;;;;;;;;;;5473739;26;1388;-71
2024/04/18 01:44:00;;;;;;;;;;;;;;;;;;5522117;25;5099;-72
2024/04/18 01:46:26;;;;;;;;;;;;;;;;;;5501442;26;4561;-69
2024/04/18 01:48:51;;;;;;;;;;;;;;;;;;5505476;26;5126;-70
2024/04/18 01:51:16;;;;;;;;;;;;;;;;;;5509194;26;4503;-70
2024/04/18 01:53:42;;;;;;;;;;;;;;;;;;5510140;26;1776;-70
2024/04/18 01:56:07;;;;;;;;;;;;;;;;;;5506897;26;5075;-70
2024/04/18 01:58:32;;;;;;;;;;;;;;;;;;5507789;26;5111;-69
2024/04/18 02:00:58;;;;;;;;;;;;;;;;;;5495910;26;5319;-70
2024/04/18 02:03:23;;;;;;;;;;;;;;;;;;5510124;25;5755;-69
2024/04/18 02:05:48;;;;;;;;;;;;;;;;;;5508393;26;4715;-69
2024/04/18 02:08:14;;;;;;;;;;;;;;;;;;5504330;25;2955;-69
2024/04/18 02:10:41;;;;;;;;;;;;;;;;;;5518417;26;5241;-69
2024/04/18 02:13:06;;;;;;;;;;;;;;;;;;5465434;26;4857;-71
2024/04/18 02:15:31;;;;;;;;;;;;;;;;;;5499449;26;5058;-68
2024/04/18 02:17:57;;;;;;;;;;;;;;;;;;5508784;26;5162;-71
2024/04/18 02:20:22;;;;;;;;;;;;;;;;;;5507773;26;1425;-69
2024/04/18 02:22:47;;;;;;;;;;;;;;;;;;5506497;26;5014;-69
2024/04/18 02:25:13;;;;;;;;;;;;;;;;;;5499394;26;5200;-70
2024/04/18 02:27:38;;;;;;;;;;;;;;;;;;5517639;26;5240;-70
2024/04/18 02:30:04;;;;;;;;;;;;;;;;;;5459494;25;4536;-73
2024/04/18 02:32:29;;;;;;;;;;;;;;;;;;5506764;26;1402;-68
2024/04/18 02:34:55;;;;;;;;;;;;;;;;;;5515557;26;5199;-70
2024/04/18 02:37:21;;;;;;;;;;;;;;;;;;5517670;26;4514;-69
2024/04/18 02:39:46;;;;;;;;;;;;;;;;;;5480908;26;5205;-68
2024/04/18 02:42:12;;;;;;;;;;;;;;;;;;5492144;26;4749;-69
2024/04/18 02:44:37;;;;;;;;;;;;;;;;;;5514447;25;1360;-69
2024/04/18 02:47:02;;;;;;;;;;;;;;;;;;5495731;25;5301;-69
2024/04/18 02:49:28;;;;;;;;;;;;;;;;;;5513797;26;5119;-68
2024/04/18 02:51:53;;;;;;;;;;;;;;;;;;5510205;26;5572;-68
2024/04/18 02:54:19;;;;;;;;;;;;;;;;;;5474267;26;5139;-69
2024/04/18 02:56:44;;;;;;;;;;;;;;;;;;5497821;26;1511;-68
2024/04/18 02:59:12;;;;;;;;;;;;;;;;;;5472985;26;5163;-68
2024/04/18 03:01:38;;;;;;;;;;;;;;;;;;5516959;26;5130;-68
2024/04/18 03:04:03;;;;;;;;;;;;;;;;;;5499262;26;5042;-68
2024/04/18 03:06:28;;;;;;;;;;;;;;;;;;5513267;26;5185;-68
2024/04/18 03:08:54;;;;;;;;;;;;;;;;;;5505219;26;4772;-69
2024/04/18 03:11:19;;;;;;;;;;;;;;;;;;5472137;26;1413;-68
2024/04/18 03:13:44;;;;;;;;;;;;;;;;;;5507401;26;4554;-68
2024/04/18 03:16:11;;;;;;;;;;;;;;;;;;5509426;26;5094;-69
2024/04/18 03:18:36;;;;;;;;;;;;;;;;;;5512652;26;5079;-68
2024/04/18 03:21:01;;;;;;;;;;;;;;;;;;5506393;26;5151;-68
2024/04/18 03:23:27;;;;;;;;;;;;;;;;;;5511567;25;1783;-71
2024/04/18 03:25:52;;;;;;;;;;;;;;;;;;5510301;26;4478;-68
2024/04/18 03:28:18;;;;;;;;;;;;;;;;;;5514700;26;5138;-67
2024/04/18 03:30:43;;;;;;;;;;;;;;;;;;5513665;26;5007;-68
2024/04/18 03:33:09;;;;;;;;;;;;;;;;;;5512069;26;5229;-68
2024/04/18 03:35:38;;;;;;;;;;;;;;;;;;5503272;26;1361;-68
2024/04/18 03:38:03;;;;;;;;;;;;;;;;;;5514934;26;5097;-67
2024/04/18 03:40:28;;;;;;;;;;;;;;;;;;5500140;26;5157;-68
2024/04/18 03:42:54;;;;;;;;;;;;;;;;;;5520649;25;4544;-67
2024/04/18 03:45:19;;;;;;;;;;;;;;;;;;5514416;25;5055;-67
2024/04/18 03:47:45;;;;;;;;;;;;;;;;;;5510711;26;1370;-67
2024/04/18 03:50:11;;;;;;;;;;;;;;;;;;5519932;26;4464;-68
2024/04/18 03:52:36;;;;;;;;;;;;;;;;;;5507927;26;5158;-67
2024/04/18 03:55:02;;;;;;;;;;;;;;;;;;5514275;26;5080;-68
2024/04/18 03:57:27;;;;;;;;;;;;;;;;;;5506054;26;4667;-67
2024/04/18 03:59:52;;;;;;;;;;;;;;;;;;5511547;26;5164;-69
2024/04/18 04:02:18;;;;;;;;;;;;;;;;;;5478798;26;2516;-69
2024/04/18 04:04:43;;;;;;;;;;;;;;;;;;5511230;26;5055;-68
2024/04/18 04:07:09;;;;;;;;;;;;;;;;;;5516378;26;5094;-67
2024/04/18 04:09:35;;;;;;;;;;;;;;;;;;5508187;26;5306;-69
2024/04/18 04:12:00;;;;;;;;;;;;;;;;;;5499412;26;5262;-67
2024/04/18 04:14:25;;;;;;;;;;;;;;;;;;5507620;26;1531;-67
2024/04/18 04:16:51;;;;;;;;;;;;;;;;;;5511210;26;5223;-67
2024/04/18 04:19:16;;;;;;;;;;;;;;;;;;5502658;26;4549;-67
2024/04/18 04:21:41;;;;;;;;;;;;;;;;;;5500710;26;5336;-68
2024/04/18 04:24:07;;;;;;;;;;;;;;;;;;5507318;26;4572;-69
2024/04/18 04:26:33;;;;;;;;;;;;;;;;;;5505584;26;1865;-67
2024/04/18 04:28:59;;;;;;;;;;;;;;;;;;5507865;26;4699;-68
2024/04/18 04:31:24;;;;;;;;;;;;;;;;;;5514531;25;5156;-66
2024/04/18 04:33:50;;;;;;;;;;;;;;;;;;5500419;25;5125;-66
2024/04/18 04:36:16;;;;;;;;;;;;;;;;;;5507601;26;5171;-66
2024/04/18 04:38:42;;;;;;;;;;;;;;;;;;5462832;26;1789;-66
2024/04/18 04:41:07;;;;;;;;;;;;;;;;;;5517288;26;5222;-69
2024/04/18 04:43:32;;;;;;;;;;;;;;;;;;5508635;25;5134;-66
2024/04/18 04:45:58;;;;;;;;;;;;;;;;;;5508527;26;4853;-67
2024/04/18 04:48:23;;;;;;;;;;;;;;;;;;5508140;26;5250;-68
2024/04/18 04:50:59;;;;;;;;;;;;;;;;;;5519281;25;5086;-67
2024/04/18 04:53:24;;;;;;;;;;;;;;;;;;5517711;26;1966;-65
2024/04/18 04:55:50;;;;;;;;;;;;;;;;;;5506429;26;4952;-66
2024/04/18 04:58:15;;;;;;;;;;;;;;;;;;5468133;26;4805;-66
2024/04/18 05:00:41;;;;;;;;;;;;;;;;;;5508953;25;5088;-65
2024/04/18 05:03:06;;;;;;;;;;;;;;;;;;5505614;26;4546;-66
2024/04/18 05:05:31;;;;;;;;;;;;;;;;;;5510353;26;1869;-65
2024/04/18 05:07:57;;;;;;;;;;;;;;;;;;5512369;25;4505;-68
2024/04/18 05:10:22;;;;;;;;;;;;;;;;;;5515079;25;5072;-58
2024/04/18 05:12:48;;;;;;;;;;;;;;;;;;5511672;25;5455;-58
2024/04/18 05:15:13;;;;;;;;;;;;;;;;;;5508431;25;4592;-59
2024/04/18 05:17:39;;;;;;;;;;;;;;;;;;5512150;25;1306;-58
2024/04/18 05:20:04;;;;;;;;;;;;;;;;;;5522185;25;5193;-58
2024/04/18 05:22:30;;;;;;;;;;;;;;;;;;5484552;26;5120;-59
2024/04/18 05:24:55;;;;;;;;;;;;;;;;;;5502824;26;5369;-58
2024/04/18 05:27:21;;;;;;;;;;;;;;;;;;5478108;25;5361;-59
2024/04/18 05:32:31;;;;;;;;;;;;;;;;;;5507950;25;4670;-58
2024/04/18 05:34:57;;;;;;;;;;;;;;;;;;5519627;25;5029;-59
2024/04/18 05:37:22;;;;;;;;;;;;;;;;;;5517339;25;5073;-59
2024/04/18 05:39:47;;;;;;;;;;;;;;;;;;5509902;25;5213;-59
2024/04/18 05:42:13;;;;;;;;;;;;;;;;;;5524668;25;4716;-59
2024/04/18 05:44:41;;;;;;;;;;;;;;;;;;5516904;25;1309;-62
2024/04/18 05:47:06;;;;;;;;;;;;;;;;;;5519958;25;4530;-63
2024/04/18 05:49:32;;;;;;;;;;;;;;;;;;5513613;26;5189;-63
2024/04/18 05:51:57;;;;;;;;;;;;;;;;;;5512239;26;5198;-63
2024/04/18 05:54:22;;;;;;;;;;;;;;;;;;5498729;26;4592;-63
2024/04/18 05:56:48;;;;;;;;;;;;;;;;;;5507409;26;1397;-63
2024/04/18 05:59:13;;;;;;;;;;;;;;;;;;5517426;25;4543;-63
2024/04/18 06:01:38;;;;;;;;;;;;;;;;;;5509144;26;5131;-63
2024/04/18 06:04:04;;;;;;;;;;;;;;;;;;5505067;26;5152;-64
2024/04/18 06:06:29;;;;;;;;;;;;;;;;;;5510012;26;5296;-63
2024/04/18 06:08:54;;;;;;;;;;;;;;;;;;5499345;26;5067;-63
2024/04/18 06:11:35;;;;;;;;;;;;;;;;;;5501949;26;1424;-63
2024/04/18 06:14:00;;;;;;;;;;;;;;;;;;5463994;26;4563;-63
2024/04/18 06:16:26;;;;;;;;;;;;;;;;;;5513410;26;4689;-63
2024/04/18 06:18:51;;;;;;;;;;;;;;;;;;5510161;26;5044;-64
2024/04/18 06:21:16;;;;;;;;;;;;;;;;;;5515494;26;4664;-63
2024/04/18 06:23:42;;;;;;;;;;;;;;;;;;5498016;26;1815;-64
2024/04/18 06:26:07;;;;;;;;;;;;;;;;;;5505483;26;5138;-64
2024/04/18 06:28:33;;;;;;;;;;;;;;;;;;5517481;25;5084;-63
2024/04/18 06:30:58;;;;;;;;;;;;;;;;;;5508835;26;5173;-62
2024/04/18 06:33:25;;;;;;;;;;;;;;;;;;5512905;26;5144;-63
2024/04/18 06:35:52;;;;;;;;;;;;;;;;;;5506992;26;5127;-63
2024/04/18 06:38:17;;;;;;;;;;;;;;;;;;5504349;26;1402;-64
2024/04/18 06:40:44;;;;;;;;;;;;;;;;;;5497124;26;5089;-63
2024/04/18 06:43:09;;;;;;;;;;;;;;;;;;5475959;26;5078;-63
2024/04/18 06:45:36;;;;;;;;;;;;;;;;;;5518087;25;4546;-63
2024/04/18 06:48:01;;;;;;;;;;;;;;;;;;5504478;26;5236;-66
2024/04/18 06:50:26;;;;;;;;;;;;;;;;;;5513969;26;2835;-63
2024/04/18 06:52:52;;;;;;;;;;;;;;;;;;5516357;26;4574;-64
2024/04/18 06:55:17;;;;;;;;;;;;;;;;;;5509063;26;5214;-64
2024/04/18 06:57:43;;;;;;;;;;;;;;;;;;5499624;26;5103;-63
2024/04/18 07:00:11;;;;;;;;;;;;;;;;;;5506439;26;5114;-63
2024/04/18 07:02:37;;;;;;;;;;;;;;;;;;5510815;26;1394;-63
2024/04/18 07:05:02;;;;;;;;;;;;;;;;;;5474648;26;5043;-64
2024/04/18 07:07:27;;;;;;;;;;;;;;;;;;5502627;26;5262;-65
2024/04/18 07:09:53;;;;;;;;;;;;;;;;;;5515066;26;5086;-64
2024/04/18 07:12:18;;;;;;;;;;;;;;;;;;5499167;26;5173;-64
2024/04/18 07:14:43;;;;;;;;;;;;;;;;;;5509542;25;1261;-64
2024/04/18 07:17:09;;;;;;;;;;;;;;;;;;5503055;26;4506;-63
2024/04/18 07:19:34;;;;;;;;;;;;;;;;;;5517206;26;5151;-63
2024/04/18 07:21:59;;;;;;;;;;;;;;;;;;5508838;26;5092;-63
2024/04/18 07:24:26;;;;;;;;;;;;;;;;;;5508732;26;4700;-66
2024/04/18 07:26:51;;;;;;;;;;;;;;;;;;5476207;26;4753;-63
2024/04/18 07:29:16;;;;;;;;;;;;;;;;;;5470536;26;1394;-63
2024/04/18 07:31:42;;;;;;;;;;;;;;;;;;5473594;26;5190;-64
2024/04/18 07:34:07;;;;;;;;;;;;;;;;;;5505706;26;5084;-63
2024/04/18 07:36:32;;;;;;;;;;;;;;;;;;5517101;26;5028;-63
2024/04/18 07:38:58;;;;;;;;;;;;;;;;;;5514274;26;5110;-64
2024/04/18 07:41:23;;;;;;;;;;;;;;;;;;5507914;26;1596;-64
2024/04/18 07:43:49;;;;;;;;;;;;;;;;;;5501517;25;4600;-63
2024/04/18 07:46:14;;;;;;;;;;;;;;;;;;5497074;26;5806;-63
2024/04/18 07:48:40;;;;;;;;;;;;;;;;;;5509356;26;4703;-63
2024/04/18 07:51:05;;;;;;;;;;;;;;;;;;5487643;26;5325;-64
2024/04/18 07:53:30;;;;;;;;;;;;;;;;;;5514883;25;1910;-63
2024/04/18 07:55:56;;;;;;;;;;;;;;;;;;5511128;26;5587;-64
2024/04/18 07:58:21;;;;;;;;;;;;;;;;;;5507796;26;5036;-64
2024/04/18 08:00:52;;;;;;;;;;;;;;;;;;5507749;26;4558;-63
2024/04/18 08:03:18;;;;;;;;;;;;;;;;;;5500849;26;5108;-64
2024/04/18 08:05:44;;;;;;;;;;;;;;;;;;5447774;26;1848;-63
2024/04/18 08:08:11;;;;;;;;;;;;;;;;;;5484014;26;5099;-64
2024/04/18 08:10:36;;;;;;;;;;;;;;;;;;5504710;26;5040;-64
2024/04/18 08:13:02;;;;;;;;;;;;;;;;;;5512092;26;4757;-64
2024/04/18 08:15:27;;;;;;;;;;;;;;;;;;5507518;26;4639;-64
2024/04/18 08:17:52;;;;;;;;;;;;;;;;;;5510282;26;5196;-64
2024/04/18 08:20:18;;;;;;;;;;;;;;;;;;5520369;26;1406;-64
2024/04/18 08:22:43;;;;;;;;;;;;;;;;;;5511900;26;5210;-64
2024/04/18 08:25:09;;;;;;;;;;;;;;;;;;5509852;26;5224;-63
2024/04/18 08:27:34;;;;;;;;;;;;;;;;;;5480752;26;4559;-65
2024/04/18 08:30:00;;;;;;;;;;;;;;;;;;5509639;26;5234;-65
2024/04/18 08:32:25;;;;;;;;;;;;;;;;;;5507464;26;1431;-64
2024/04/18 08:34:50;;;;;;;;;;;;;;;;;;5519238;26;5199;-64
2024/04/18 08:37:16;;;;;;;;;;;;;;;;;;5481375;26;5122;-64
2024/04/18 08:39:41;;;;;;;;;;;;;;;;;;5516005;26;4670;-64
2024/04/18 08:42:07;;;;;;;;;;;;;;;;;;5511920;26;4587;-63
2024/04/18 08:44:32;;;;;;;;;;;;;;;;;;5466706;26;1298;-64
2024/04/18 08:46:58;;;;;;;;;;;;;;;;;;5480019;26;5080;-64
2024/04/18 08:49:24;;;;;;;;;;;;;;;;;;5515208;26;4651;-64
2024/04/18 08:51:49;;;;;;;;;;;;;;;;;;5472289;26;4549;-65
2024/04/18 08:54:14;;;;;;;;;;;;;;;;;;5514936;26;4660;-63
2024/04/18 08:56:42;;;;;;;;;;;;;;;;;;5503662;26;1367;-65
2024/04/18 08:59:07;;;;;;;;;;;;;;;;;;5511662;26;5071;-64
2024/04/18 09:01:32;;;;;;;;;;;;;;;;;;5511481;26;5082;-64
2024/04/18 09:03:58;;;;;;;;;;;;;;;;;;5474549;26;4565;-64
2024/04/18 09:06:23;;;;;;;;;;;;;;;;;;5510891;26;5167;-64
2024/04/18 09:08:50;;;;;;;;;;;;;;;;;;5505785;26;5018;-63
2024/04/18 09:11:16;;;;;;;;;;;;;;;;;;5513090;26;1535;-65
2024/04/18 09:13:41;;;;;;;;;;;;;;;;;;5510553;26;5215;-64
2024/04/18 09:16:06;;;;;;;;;;;;;;;;;;5509644;26;5070;-64
2024/04/18 09:18:33;;;;;;;;;;;;;;;;;;5471455;26;5109;-65
2024/04/18 09:20:58;;;;;;;;;;;;;;;;;;5507131;26;5261;-64
2024/04/18 09:23:24;;;;;;;;;;;;;;;;;;5512941;26;1802;-64
2024/04/18 09:25:53;;;;;;;;;;;;;;;;;;5509574;26;5230;-64
2024/04/18 09:28:21;;;;;;;;;;;;;;;;;;5492889;26;5275;-64
2024/04/18 09:30:48;;;;;;;;;;;;;;;;;;5514243;26;5116;-64
2024/04/18 09:33:14;;;;;;;;;;;;;;;;;;5476129;26;5457;-64
2024/04/18 09:35:39;;;;;;;;;;;;;;;;;;5471487;26;1357;-64
2024/04/18 09:38:05;;;;;;;;;;;;;;;;;;5515645;26;5721;-64
2024/04/18 09:40:32;;;;;;;;;;;;;;;;;;5482650;26;5104;-64
2024/04/18 09:43:03;;;;;;;;;;;;;;;;;;5503508;26;4577;-64
2024/04/18 09:45:32;;;;;;;;;;;;;;;;;;5477110;26;5262;-65
2024/04/18 09:47:57;;;;;;;;;;;;;;;;;;5470447;26;5130;-64
2024/04/18 09:50:23;;;;;;;;;;;;;;;;;;5486504;26;1473;-64
2024/04/18 09:52:49;;;;;;;;;;;;;;;;;;5477151;26;5034;-63
2024/04/18 09:55:14;;;;;;;;;;;;;;;;;;5477407;26;4661;-65
2024/04/18 09:57:40;;;;;;;;;;;;;;;;;;5502807;26;5063;-64
2024/04/18 10:00:05;;;;;;;;;;;;;;;;;;5467298;26;5069;-65
2024/04/18 10:02:31;;;;;;;;;;;;;;;;;;5486127;26;1597;-64
2024/04/18 10:04:57;;;;;;;;;;;;;;;;;;5501507;26;5068;-64
2024/04/18 10:07:23;;;;;;;;;;;;;;;;;;5492440;26;5202;-64
2024/04/18 10:09:48;;;;;;;;;;;;;;;;;;5465431;26;5095;-64
2024/04/18 10:12:13;;;;;;;;;;;;;;;;;;5507677;26;5113;-64
2024/04/18 10:14:39;;;;;;;;;;;;;;;;;;5495216;26;1418;-64
2024/04/18 10:17:07;;;;;;;;;;;;;;;;;;5504307;26;5002;-67
2024/04/18 10:19:32;;;;;;;;;;;;;;;;;;5459772;26;5154;-64
2024/04/18 10:21:58;;;;;;;;;;;;;;;;;;5509104;26;5117;-64
2024/04/18 10:24:37;;;;;;;;;;;;;;;;;;5511546;26;5347;-64
2024/04/18 10:27:08;;;;;;;;;;;;;;;;;;5464084;26;4596;-65
2024/04/18 10:29:34;;;;;;;;;;;;;;;;;;5499511;26;1269;-63
2024/04/18 10:32:00;;;;;;;;;;;;;;;;;;5507313;26;5580;-64
2024/04/18 10:34:28;;;;;;;;;;;;;;;;;;5513289;26;5176;-64
2024/04/18 10:36:56;;;;;;;;;;;;;;;;;;5506256;26;5198;-65
2024/04/18 10:39:31;;;;;;;;;;;;;;;;;;5517694;26;5110;-64
2024/04/18 10:42:02;;;;;;;;;;;;;;;;;;5511786;26;5764;-65
2024/04/18 10:44:27;;;;;;;;;;;;;;;;;;5511961;25;1377;-64
2024/04/18 10:46:54;;;;;;;;;;;;;;;;;;5514706;26;4489;-65
2024/04/18 10:49:19;;;;;;;;;;;;;;;;;;5494108;26;5257;-64
2024/04/18 10:51:44;;;;;;;;;;;;;;;;;;5468686;25;5276;-64
2024/04/18 10:54:11;;;;;;;;;;;;;;;;;;5466587;26;4562;-65
2024/04/18 10:56:36;;;;;;;;;;;;;;;;;;5498927;26;1298;-64
2024/04/18 10:59:01;;;;;;;;;;;;;;;;;;5504259;26;5247;-67
2024/04/18 11:01:31;;;;;;;;;;;;;;;;;;5507899;26;4530;-66
2024/04/18 11:03:57;;;;;;;;;;;;;;;;;;5507736;26;5114;-64
2024/04/18 11:06:22;;;;;;;;;;;;;;;;;;5505078;26;5285;-64
2024/04/18 11:08:51;;;;;;;;;;;;;;;;;;5500059;26;1281;-64
2024/04/18 11:11:17;;;;;;;;;;;;;;;;;;5492247;26;5055;-66
2024/04/18 11:13:42;;;;;;;;;;;;;;;;;;5473950;26;5056;-64
2024/04/18 11:16:08;;;;;;;;;;;;;;;;;;5511284;26;5219;-64
2024/04/18 11:18:33;;;;;;;;;;;;;;;;;;5463897;26;5367;-64
2024/04/18 11:20:58;;;;;;;;;;;;;;;;;;5484773;26;5135;-66
2024/04/18 11:23:24;;;;;;;;;;;;;;;;;;5483618;26;1925;-64
2024/04/18 11:25:49;;;;;;;;;;;;;;;;;;5497335;26;5239;-64
2024/04/18 11:28:15;;;;;;;;;;;;;;;;;;5502543;26;5155;-65
2024/04/18 11:30:41;;;;;;;;;;;;;;;;;;5516648;26;5023;-64
2024/04/18 11:33:08;;;;;;;;;;;;;;;;;;5505604;26;5188;-64
2024/04/18 11:35:33;;;;;;;;;;;;;;;;;;5514215;26;1338;-64
2024/04/18 11:38:02;;;;;;;;;;;;;;;;;;5461269;26;5070;-64
2024/04/18 11:40:27;;;;;;;;;;;;;;;;;;5501612;26;5115;-64
2024/04/18 11:42:52;;;;;;;;;;;;;;;;;;5505831;26;4729;-65
2024/04/18 11:45:18;;;;;;;;;;;;;;;;;;5516702;25;6220;-64
2024/04/18 11:47:43;;;;;;;;;;;;;;;;;;5513566;26;1286;-65
2024/04/18 11:50:08;;;;;;;;;;;;;;;;;;5503445;26;4501;-65
2024/04/18 11:52:34;;;;;;;;;;;;;;;;;;5508656;26;5073;-64
2024/04/18 11:54:59;;;;;;;;;;;;;;;;;;5481647;26;5165;-64
2024/04/18 11:57:24;;;;;;;;;;;;;;;;;;5473606;26;5115;-64
2024/04/18 11:59:50;;;;;;;;;;;;;;;;;;5497479;26;6305;-64
2024/04/18 12:02:15;;;;;;;;;;;;;;;;;;5505577;26;1338;-64
2024/04/18 12:04:40;;;;;;;;;;;;;;;;;;5499811;26;4651;-64
2024/04/18 12:07:06;;;;;;;;;;;;;;;;;;5509553;26;5437;-64
2024/04/18 12:09:36;;;;;;;;;;;;;;;;;;5507232;25;5113;-64
2024/04/18 12:12:02;;;;;;;;;;;;;;;;;;5510870;26;5374;-64
2024/04/18 12:14:28;;;;;;;;;;;;;;;;;;5502738;26;1397;-65
2024/04/18 12:16:53;;;;;;;;;;;;;;;;;;5510546;26;6089;-64
2024/04/18 12:19:19;;;;;;;;;;;;;;;;;;5512066;26;5194;-65
2024/04/18 12:21:44;;;;;;;;;;;;;;;;;;5506537;26;5085;-65
2024/04/18 12:24:09;;;;;;;;;;;;;;;;;;5510145;26;5151;-64
2024/04/18 12:26:35;;;;;;;;;;;;;;;;;;5502549;26;1865;-64
2024/04/18 12:29:01;;;;;;;;;;;;;;;;;;5511223;26;4741;-65
2024/04/18 12:31:26;;;;;;;;;;;;;;;;;;5514587;26;6013;-65
2024/04/18 12:33:51;;;;;;;;;;;;;;;;;;5512221;26;5101;-64
2024/04/18 12:36:17;;;;;;;;;;;;;;;;;;5508935;26;5249;-65
2024/04/18 12:38:44;;;;;;;;;;;;;;;;;;5510184;26;1630;-64
2024/04/18 12:41:10;;;;;;;;;;;;;;;;;;5503163;26;5342;-65
2024/04/18 12:43:35;;;;;;;;;;;;;;;;;;5505993;25;5106;-64
2024/04/18 12:46:01;;;;;;;;;;;;;;;;;;5512647;26;4537;-64
2024/04/18 12:48:26;;;;;;;;;;;;;;;;;;5495492;26;5277;-65
2024/04/18 12:50:51;;;;;;;;;;;;;;;;;;5512837;26;5072;-64
2024/04/18 12:53:17;;;;;;;;;;;;;;;;;;5501235;26;1879;-64
2024/04/18 12:55:42;;;;;;;;;;;;;;;;;;5517017;26;5099;-64
2024/04/18 12:58:07;;;;;;;;;;;;;;;;;;5498043;26;5071;-65
2024/04/18 13:00:33;;;;;;;;;;;;;;;;;;5513863;26;4605;-65
2024/04/18 13:02:59;;;;;;;;;;;;;;;;;;5507376;26;5199;-64
2024/04/18 13:05:25;;;;;;;;;;;;;;;;;;5511406;26;1836;-67
2024/04/18 13:07:50;;;;;;;;;;;;;;;;;;5458532;26;5079;-65
2024/04/18 13:10:15;;;;;;;;;;;;;;;;;;5501081;26;4813;-65
2024/04/18 13:12:41;;;;;;;;;;;;;;;;;;5510227;26;5372;-64
2024/04/18 13:15:06;;;;;;;;;;;;;;;;;;5504724;26;4577;-64
2024/04/18 13:17:31;;;;;;;;;;;;;;;;;;5506611;26;1398;-66
2024/04/18 13:19:59;;;;;;;;;;;;;;;;;;5516492;26;4967;-64
2024/04/18 13:22:25;;;;;;;;;;;;;;;;;;5475639;26;5273;-64
2024/04/18 13:24:50;;;;;;;;;;;;;;;;;;5514518;26;5308;-66
2024/04/18 13:27:15;;;;;;;;;;;;;;;;;;5509716;26;4614;-64
2024/04/18 13:29:41;;;;;;;;;;;;;;;;;;5503160;26;1167;-64
2024/04/18 13:32:06;;;;;;;;;;;;;;;;;;5518972;26;4948;-65
2024/04/18 13:34:32;;;;;;;;;;;;;;;;;;5509053;26;5023;-65
2024/04/18 13:36:57;;;;;;;;;;;;;;;;;;5518958;26;5320;-66
2024/04/18 13:39:23;;;;;;;;;;;;;;;;;;5472136;26;4647;-65
2024/04/18 13:41:49;;;;;;;;;;;;;;;;;;5514672;26;1342;-64
2024/04/18 13:44:18;;;;;;;;;;;;;;;;;;5516185;25;5107;-65
2024/04/18 13:46:43;;;;;;;;;;;;;;;;;;5518209;26;5753;-64
2024/04/18 13:49:09;;;;;;;;;;;;;;;;;;5518568;26;5332;-64
2024/04/18 13:51:34;;;;;;;;;;;;;;;;;;5509043;26;5021;-64
2024/04/18 13:53:59;;;;;;;;;;;;;;;;;;5506938;26;5211;-65
2024/04/18 13:56:25;;;;;;;;;;;;;;;;;;5509918;26;1365;-65
2024/04/18 13:58:50;;;;;;;;;;;;;;;;;;5508638;26;4558;-65
2024/04/18 14:01:15;;;;;;;;;;;;;;;;;;5511857;26;4595;-65
2024/04/18 14:03:41;;;;;;;;;;;;;;;;;;5475292;26;4560;-64
2024/04/18 14:06:09;;;;;;;;;;;;;;;;;;5500620;26;5249;-65
2024/04/18 14:08:38;;;;;;;;;;;;;;;;;;5509136;26;1255;-64
2024/04/18 14:11:03;;;;;;;;;;;;;;;;;;5484010;26;5111;-65
2024/04/18 14:13:29;;;;;;;;;;;;;;;;;;5504922;26;4804;-65
2024/04/18 14:18:51;;;;;;;;;;;;;;;;;;5510009;26;5193;-64
2024/04/18 14:21:19;;;;;;;;;;;;;;;;;;5499646;26;5159;-66
2024/04/18 14:23:44;;;;;;;;;;;;;;;;;;5515773;25;1815;-64
2024/04/18 14:26:09;;;;;;;;;;;;;;;;;;5503140;26;5007;-64
2024/04/18 14:28:35;;;;;;;;;;;;;;;;;;5505990;26;4592;-64
2024/04/18 14:31:00;;;;;;;;;;;;;;;;;;5507844;26;5015;-64
2024/04/18 14:33:26;;;;;;;;;;;;;;;;;;5510797;26;5035;-64
2024/04/18 14:35:52;;;;;;;;;;;;;;;;;;5503519;26;5062;-65
2024/04/18 14:38:17;;;;;;;;;;;;;;;;;;5508962;26;1337;-66
2024/04/18 14:40:42;;;;;;;;;;;;;;;;;;5510751;26;5171;-65
2024/04/18 14:43:08;;;;;;;;;;;;;;;;;;5505456;26;5143;-64
2024/04/18 14:45:33;;;;;;;;;;;;;;;;;;5517891;25;5023;-64
2024/04/18 14:47:58;;;;;;;;;;;;;;;;;;5513121;26;4958;-64
2024/04/18 14:50:24;;;;;;;;;;;;;;;;;;5506484;26;1342;-64
2024/04/18 14:52:49;;;;;;;;;;;;;;;;;;5503730;26;5463;-65
2024/04/18 14:55:15;;;;;;;;;;;;;;;;;;5480316;26;5263;-65
2024/04/18 14:57:40;;;;;;;;;;;;;;;;;;5507631;26;5232;-64
2024/04/18 15:00:06;;;;;;;;;;;;;;;;;;5505850;26;4692;-64
2024/04/18 15:02:31;;;;;;;;;;;;;;;;;;5517801;26;1245;-64
2024/04/18 15:04:57;;;;;;;;;;;;;;;;;;5500513;26;5170;-65
2024/04/18 15:07:22;;;;;;;;;;;;;;;;;;5512788;26;5154;-65
2024/04/18 15:09:48;;;;;;;;;;;;;;;;;;5511077;26;5186;-65
2024/04/18 15:12:13;;;;;;;;;;;;;;;;;;5509642;26;5160;-65
2024/04/18 15:14:38;;;;;;;;;;;;;;;;;;5506457;26;1302;-64
2024/04/18 15:17:08;;;;;;;;;;;;;;;;;;5508839;26;4602;-65
2024/04/18 15:19:36;;;;;;;;;;;;;;;;;;5512213;26;5132;-64
2024/04/18 15:22:04;;;;;;;;;;;;;;;;;;5491977;25;5065;-64
2024/04/18 15:24:29;;;;;;;;;;;;;;;;;;5463180;26;5175;-64
2024/04/18 15:26:55;;;;;;;;;;;;;;;;;;5457406;26;5255;-64
2024/04/18 15:29:20;;;;;;;;;;;;;;;;;;5457570;26;1275;-64
2024/04/18 15:31:45;;;;;;;;;;;;;;;;;;5463675;26;5710;-64
2024/04/18 15:34:11;;;;;;;;;;;;;;;;;;5467297;26;4582;-64
2024/04/18 15:36:36;;;;;;;;;;;;;;;;;;5464103;26;5363;-64
2024/04/18 15:39:01;;;;;;;;;;;;;;;;;;5467397;26;5041;-64
2024/04/18 15:41:27;;;;;;;;;;;;;;;;;;5462321;26;1365;-64
2024/04/18 15:43:54;;;;;;;;;;;;;;;;;;5472098;26;5171;-64
2024/04/18 15:46:19;;;;;;;;;;;;;;;;;;5466031;26;5044;-64
2024/04/18 15:48:44;;;;;;;;;;;;;;;;;;5457518;26;5400;-65
2024/04/18 15:51:10;;;;;;;;;;;;;;;;;;5462485;26;4626;-65
2024/04/18 15:53:35;;;;;;;;;;;;;;;;;;5453100;26;1757;-65
2024/04/18 15:56:00;;;;;;;;;;;;;;;;;;5451909;26;5115;-64
2024/04/18 15:58:26;;;;;;;;;;;;;;;;;;5459096;26;4682;-65
2024/04/18 16:00:51;;;;;;;;;;;;;;;;;;5454308;26;5108;-64
2024/04/18 16:03:16;;;;;;;;;;;;;;;;;;5452263;26;5055;-64
2024/04/18 16:05:42;;;;;;;;;;;;;;;;;;5454821;26;1876;-67
2024/04/18 16:08:07;;;;;;;;;;;;;;;;;;5454466;26;5104;-65
2024/04/18 16:10:33;;;;;;;;;;;;;;;;;;5451255;26;5150;-64
2024/04/18 16:12:58;;;;;;;;;;;;;;;;;;5467819;26;5262;-65
2024/04/18 16:15:24;;;;;;;;;;;;;;;;;;5462058;26;5088;-65
2024/04/18 16:17:49;;;;;;;;;;;;;;;;;;5452677;26;5078;-63
2024/04/18 16:20:14;;;;;;;;;;;;;;;;;;5454142;26;1390;-64
2024/04/18 16:22:40;;;;;;;;;;;;;;;;;;5472495;25;5192;-65
2024/04/18 16:25:06;;;;;;;;;;;;;;;;;;5513117;26;5131;-64
2024/04/18 16:27:33;;;;;;;;;;;;;;;;;;5519479;26;4690;-67
2024/04/18 16:29:58;;;;;;;;;;;;;;;;;;5520080;26;5830;-65
2024/04/18 16:32:24;;;;;;;;;;;;;;;;;;5519486;26;1353;-65
2024/04/18 16:34:49;;;;;;;;;;;;;;;;;;5519546;25;5083;-65
2024/04/18 16:37:14;;;;;;;;;;;;;;;;;;5516649;26;5113;-65
2024/04/18 16:39:40;;;;;;;;;;;;;;;;;;5515047;26;4672;-66
2024/04/18 16:42:06;;;;;;;;;;;;;;;;;;5519556;26;5324;-65
2024/04/18 16:44:31;;;;;;;;;;;;;;;;;;5521909;25;1213;-64
2024/04/18 16:46:56;;;;;;;;;;;;;;;;;;5507291;25;5027;-64
2024/04/18 16:49:22;;;;;;;;;;;;;;;;;;5478634;26;5359;-64
2024/04/18 16:51:48;;;;;;;;;;;;;;;;;;5519563;26;5201;-65
2024/04/18 16:54:13;;;;;;;;;;;;;;;;;;5514991;26;5154;-64
2024/04/18 16:56:39;;;;;;;;;;;;;;;;;;5515581;25;1271;-65
2024/04/18 16:59:04;;;;;;;;;;;;;;;;;;5473225;26;4519;-65